createdAt,value
2023-04-15T00:01:11.734Z,5.00
2023-04-15T00:03:39.862Z,5.32
2023-04-15T00:06:09.746Z,5.30
2023-04-15T00:08:37.446Z,4.70
2023-04-15T00:11:06.001Z,5.55
2023-04-15T00:13:34.053Z,5.55
2023-04-15T00:16:02.317Z,5.25
2023-04-15T00:18:31.603Z,6.03
2023-04-15T00:20:59.402Z,5.55
2023-04-15T00:23:29.117Z,5.25
2023-04-15T00:25:56.887Z,4.97
2023-04-15T00:28:24.790Z,5.00
2023-04-15T00:30:52.511Z,5.00
2023-04-15T00:33:20.210Z,5.63
2023-04-15T00:35:47.948Z,4.82
2023-04-15T00:38:15.718Z,5.75
2023-04-15T00:40:45.161Z,5.45
2023-04-15T00:43:12.938Z,5.78
2023-04-15T00:45:41.237Z,5.38
2023-04-15T00:48:09.652Z,5.85
2023-04-15T00:50:37.408Z,5.90
2023-04-15T00:53:05.248Z,5.63
2023-04-15T00:55:33.019Z,5.53
2023-04-15T00:58:02.114Z,5.55
2023-04-15T01:00:31.207Z,5.60
2023-04-15T01:02:59.059Z,6.35
2023-04-15T01:05:27.503Z,5.32
2023-04-15T01:07:56.343Z,5.90
2023-04-15T01:10:24.148Z,5.10
2023-04-15T01:12:52.481Z,5.25
2023-04-15T01:15:21.907Z,5.70
2023-04-15T01:17:49.931Z,6.45
2023-04-15T01:20:18.157Z,5.82
2023-04-15T01:22:46.527Z,6.20
2023-04-15T01:25:18.742Z,6.18
2023-04-15T01:27:57.042Z,6.32
2023-04-15T01:30:24.723Z,6.97
2023-04-15T01:32:52.516Z,6.53
2023-04-15T01:35:21.254Z,6.32
2023-04-15T01:37:49.359Z,6.55
2023-04-15T01:40:17.390Z,6.35
2023-04-15T01:42:45.071Z,6.60
2023-04-15T01:45:14.336Z,6.88
2023-04-15T01:47:42.136Z,5.82
2023-04-15T01:50:10.689Z,6.57
2023-04-15T01:52:38.403Z,6.90
2023-04-15T01:55:08.101Z,6.40
2023-04-15T01:57:35.772Z,6.03
2023-04-15T02:00:03.663Z,6.28
2023-04-15T02:02:32.892Z,5.95
2023-04-15T02:05:00.763Z,6.13
2023-04-15T02:07:28.950Z,5.97
2023-04-15T02:09:56.743Z,6.40
2023-04-15T02:12:24.409Z,5.90
2023-04-15T02:14:52.077Z,6.22
2023-04-15T02:17:19.791Z,6.60
2023-04-15T02:19:49.500Z,5.85
2023-04-15T02:22:18.642Z,5.80
2023-04-15T02:24:47.432Z,5.63
2023-04-15T02:27:18.140Z,5.57
2023-04-15T02:29:45.968Z,6.15
2023-04-15T02:32:14.045Z,6.13
2023-04-15T02:34:42.849Z,5.60
2023-04-15T02:37:12.869Z,5.82
2023-04-15T02:39:40.565Z,6.45
2023-04-15T02:42:08.398Z,5.70
2023-04-15T02:44:36.783Z,5.47
2023-04-15T02:47:06.623Z,5.70
2023-04-15T02:49:34.393Z,5.63
2023-04-15T02:52:02.060Z,6.00
2023-04-15T02:54:32.618Z,5.28
2023-04-15T02:57:01.636Z,5.53
2023-04-15T02:59:29.623Z,5.85
2023-04-15T03:02:00.905Z,5.35
2023-04-15T03:04:30.170Z,5.70
2023-04-15T03:06:57.947Z,5.25
2023-04-15T03:09:25.831Z,4.65
2023-04-15T03:11:54.878Z,5.65
2023-04-15T03:14:22.530Z,5.05
2023-04-15T03:16:50.574Z,5.40
2023-04-15T03:19:18.264Z,5.15
2023-04-15T03:21:46.038Z,4.90
2023-04-15T03:24:13.802Z,5.88
2023-04-15T03:26:41.489Z,5.15
2023-04-15T03:29:10.792Z,4.95
2023-04-15T03:31:38.533Z,5.38
2023-04-15T03:34:06.614Z,5.20
2023-04-15T03:36:34.450Z,5.03
2023-04-15T03:39:03.347Z,5.25
2023-04-15T03:41:31.108Z,4.90
2023-04-15T03:43:58.784Z,5.57
2023-04-15T03:46:28.061Z,4.82
2023-04-15T03:48:56.141Z,4.53
2023-04-15T03:51:23.861Z,5.18
2023-04-15T03:53:51.761Z,5.10
2023-04-15T03:56:19.451Z,4.28
2023-04-15T03:58:47.141Z,4.65
2023-04-15T04:01:14.937Z,4.72
2023-04-15T04:03:44.128Z,4.43
2023-04-15T04:06:12.618Z,4.40
2023-04-15T04:08:40.334Z,5.22
2023-04-15T04:11:08.055Z,4.47
2023-04-15T04:13:35.988Z,4.45
2023-04-15T04:16:04.763Z,4.35
2023-04-15T04:18:32.854Z,4.22
2023-04-15T04:21:02.158Z,3.97
2023-04-15T04:23:29.940Z,4.80
2023-04-15T04:25:57.770Z,4.57
2023-04-15T04:28:25.780Z,4.32
2023-04-15T04:30:53.753Z,3.97
2023-04-15T04:33:21.696Z,4.68
2023-04-15T04:35:49.474Z,4.40
2023-04-15T04:38:18.853Z,4.75
2023-04-15T04:40:46.707Z,4.40
2023-04-15T04:43:14.880Z,4.50
2023-04-15T04:45:42.949Z,4.35
2023-04-15T04:48:10.858Z,4.63
2023-04-15T04:50:39.823Z,4.45
2023-04-15T04:53:07.570Z,4.15
2023-04-15T04:55:37.566Z,4.65
2023-04-15T04:58:05.307Z,4.50
2023-04-15T05:00:33.050Z,4.07
2023-04-15T05:03:01.173Z,4.35
2023-04-15T05:05:29.052Z,4.00
2023-04-15T05:07:56.842Z,4.00
2023-04-15T05:10:24.666Z,4.57
2023-04-15T05:12:53.762Z,3.70
2023-04-15T05:15:21.686Z,4.20
2023-04-15T05:17:49.452Z,3.97
2023-04-15T05:20:17.450Z,4.35
2023-04-15T05:22:45.203Z,3.97
2023-04-15T05:25:12.974Z,3.83
2023-04-15T05:27:40.749Z,3.72
2023-04-15T05:30:12.765Z,3.50
2023-04-15T05:32:41.501Z,2.75
2023-04-15T05:35:09.492Z,3.33
2023-04-15T05:37:37.346Z,3.40
2023-04-15T05:40:05.620Z,4.30
2023-04-15T05:42:33.424Z,3.50
2023-04-15T05:45:01.505Z,3.78
2023-04-15T05:47:30.797Z,2.92
2023-04-15T05:49:59.151Z,3.58
2023-04-15T05:52:27.330Z,3.78
2023-04-15T05:54:55.139Z,2.88
2023-04-15T05:57:23.012Z,2.97
2023-04-15T05:59:52.357Z,2.40
2023-04-15T06:02:20.417Z,3.20
2023-04-15T06:04:49.620Z,3.00
2023-04-15T06:07:17.366Z,3.30
2023-04-15T06:09:45.276Z,3.78
2023-04-15T06:12:13.206Z,3.50
2023-04-15T06:14:41.341Z,3.13
2023-04-15T06:17:09.072Z,3.25
2023-04-15T06:19:37.328Z,2.67
2023-04-15T06:22:07.299Z,2.60
2023-04-15T06:24:37.076Z,3.20
2023-04-15T06:27:05.242Z,3.10
2023-04-15T06:29:33.002Z,2.47
2023-04-15T06:32:01.026Z,3.50
2023-04-15T06:34:28.876Z,3.05
2023-04-15T06:36:57.543Z,2.60
2023-04-15T06:39:26.715Z,3.00
2023-04-15T06:41:54.589Z,3.00
2023-04-15T06:44:22.381Z,2.60
2023-04-15T06:46:50.049Z,2.40
2023-04-15T06:49:17.881Z,1.83
2023-04-15T06:51:45.619Z,2.92
2023-04-15T06:54:13.369Z,2.67
2023-04-15T06:56:42.587Z,2.45
2023-04-15T06:59:10.345Z,2.40
2023-04-15T07:01:38.041Z,2.30
2023-04-15T07:04:06.216Z,3.05
2023-04-15T07:06:34.094Z,2.40
2023-04-15T07:09:03.266Z,2.20
2023-04-15T07:11:31.317Z,2.20
2023-04-15T07:14:00.429Z,2.22
2023-04-15T07:16:29.406Z,2.03
2023-04-15T07:18:57.635Z,2.55
2023-04-15T07:21:25.677Z,1.98
2023-04-15T07:23:53.367Z,1.90
2023-04-15T07:26:21.461Z,2.15
2023-04-15T07:28:49.550Z,2.50
2023-04-15T07:31:18.704Z,2.60
2023-04-15T07:33:46.505Z,2.53
2023-04-15T07:36:14.374Z,1.92
2023-04-15T07:38:42.547Z,2.42
2023-04-15T07:41:10.605Z,2.47
2023-04-15T07:43:38.768Z,2.67
2023-04-15T07:46:06.973Z,2.88
2023-04-15T07:48:37.038Z,2.00
2023-04-15T07:51:05.652Z,2.20
2023-04-15T07:53:34.007Z,2.45
2023-04-15T07:56:01.743Z,2.33
2023-04-15T07:58:29.419Z,2.45
2023-04-15T08:00:57.230Z,2.38
2023-04-15T08:03:25.002Z,2.30
2023-04-15T08:05:54.371Z,2.35
2023-04-15T08:08:22.394Z,2.40
2023-04-15T08:10:52.466Z,2.60
2023-04-15T08:13:20.831Z,2.40
2023-04-15T08:16:16.145Z,2.30
2023-04-15T08:18:43.963Z,2.55
2023-04-15T08:21:13.335Z,2.80
2023-04-15T08:23:41.184Z,2.22
2023-04-15T08:26:09.003Z,2.35
2023-04-15T08:28:36.873Z,2.63
2023-04-15T08:31:04.718Z,2.30
2023-04-15T08:33:32.491Z,2.60
2023-04-15T08:36:00.268Z,2.60
2023-04-15T08:38:29.288Z,3.22
2023-04-15T08:40:58.743Z,2.50
2023-04-15T08:43:30.633Z,2.58
2023-04-15T08:46:01.566Z,3.20
2023-04-15T08:48:31.553Z,4.72
2023-04-15T08:51:00.130Z,3.10
2023-04-15T08:53:30.757Z,14.05
2023-04-15T08:56:01.549Z,30.55
2023-04-15T08:58:30.344Z,35.08
2023-04-15T09:00:58.756Z,3.30
2023-04-15T09:03:27.436Z,3.10
2023-04-15T09:05:56.180Z,2.97
2023-04-15T09:08:24.122Z,3.35
2023-04-15T09:10:54.861Z,4.22
2023-04-15T09:13:22.953Z,3.10
2023-04-15T09:15:51.389Z,2.90
2023-04-15T09:18:29.748Z,2.97
2023-04-15T09:20:57.836Z,3.17
2023-04-15T09:23:25.767Z,2.97
2023-04-15T09:25:55.030Z,3.40
2023-04-15T09:28:27.556Z,3.67
2023-04-15T09:30:58.734Z,3.58
2023-04-15T09:33:27.424Z,3.50
2023-04-15T09:36:00.602Z,3.35
2023-04-15T09:38:28.756Z,3.75
2023-04-15T09:40:58.452Z,3.60
2023-04-15T09:43:39.631Z,3.97
2023-04-15T09:46:07.796Z,3.58
2023-04-15T09:48:35.912Z,3.17
2023-04-15T09:51:03.867Z,3.50
2023-04-15T09:53:35.418Z,3.85
2023-04-15T09:56:07.570Z,3.60
2023-04-15T09:58:38.676Z,4.22
2023-04-15T10:01:09.192Z,4.45
2023-04-15T10:03:37.574Z,4.35
2023-04-15T10:06:06.012Z,4.68
2023-04-15T10:08:36.048Z,4.15
2023-04-15T10:11:07.269Z,3.95
2023-04-15T10:13:37.505Z,4.60
2023-04-15T10:16:08.504Z,4.05
2023-04-15T10:18:41.785Z,4.53
2023-04-15T10:21:11.130Z,4.68
2023-04-15T10:23:39.987Z,5.30
2023-04-15T10:26:12.385Z,5.20
2023-04-15T10:28:40.479Z,4.78
2023-04-15T10:31:09.440Z,4.55
2023-04-15T10:33:38.894Z,5.18
2023-04-15T10:36:07.861Z,5.45
2023-04-15T10:38:37.551Z,4.97
2023-04-15T10:41:21.958Z,5.35
2023-04-15T10:43:52.943Z,5.03
2023-04-15T10:46:23.756Z,5.32
2023-04-15T10:48:53.403Z,5.18
2023-04-15T10:51:32.325Z,5.60
2023-04-15T10:54:01.008Z,6.10
2023-04-15T10:56:31.839Z,5.50
2023-04-15T10:59:02.202Z,5.50
2023-04-15T11:01:52.864Z,5.53
2023-04-15T11:04:53.752Z,5.25
2023-04-15T11:07:52.103Z,5.10
2023-04-15T11:10:57.192Z,5.28
2023-04-15T11:13:29.293Z,4.85
2023-04-15T11:16:01.811Z,4.93
2023-04-15T11:18:34.843Z,5.55
2023-04-15T11:21:05.345Z,5.10
2023-04-15T11:23:39.368Z,5.32
2023-04-15T11:26:09.893Z,5.00
2023-04-15T11:28:41.238Z,4.93
2023-04-15T11:31:11.789Z,5.50
2023-04-15T11:33:46.889Z,5.28
2023-04-15T11:36:14.983Z,5.28
2023-04-15T11:38:48.394Z,5.55
2023-04-15T11:41:16.668Z,5.57
2023-04-15T11:43:45.892Z,5.05
2023-04-15T11:46:13.763Z,5.50
2023-04-15T11:48:45.038Z,5.80
2023-04-15T11:51:13.741Z,5.63
2023-04-15T11:53:44.605Z,5.38
2023-04-15T11:56:18.450Z,5.22
2023-04-15T11:58:48.354Z,5.55
2023-04-15T12:01:16.188Z,5.32
2023-04-15T12:03:46.926Z,5.93
2023-04-15T12:06:19.093Z,5.65
2023-04-15T12:08:54.131Z,5.85
2023-04-15T12:11:23.067Z,5.90
2023-04-15T12:13:52.541Z,6.22
2023-04-15T12:16:21.010Z,6.55
2023-04-15T12:18:52.011Z,6.03
2023-04-15T12:21:20.670Z,7.72
2023-04-15T12:23:52.223Z,5.93
2023-04-15T12:26:27.455Z,5.72
2023-04-15T12:28:57.478Z,5.40
2023-04-15T12:31:25.229Z,6.20
2023-04-15T12:33:52.978Z,6.32
2023-04-15T12:36:20.815Z,6.13
2023-04-15T12:38:48.474Z,5.88
2023-04-15T12:41:16.196Z,6.20
2023-04-15T12:43:45.555Z,6.90
2023-04-15T12:46:15.601Z,5.45
2023-04-15T12:48:43.620Z,6.30
2023-04-15T12:51:11.376Z,5.03
2023-04-15T12:53:39.041Z,5.78
2023-04-15T12:56:07.754Z,5.45
2023-04-15T12:58:36.016Z,5.45
2023-04-15T13:01:03.961Z,5.15
2023-04-15T13:03:33.265Z,6.00
2023-04-15T13:06:02.273Z,4.40
2023-04-15T13:08:29.932Z,4.75
2023-04-15T13:10:57.948Z,4.93
2023-04-15T13:13:25.661Z,4.25
2023-04-15T13:15:53.439Z,4.10
2023-04-15T13:18:21.115Z,3.90
2023-04-15T13:20:50.351Z,4.13
2023-04-15T13:23:18.383Z,4.47
2023-04-15T13:25:46.471Z,3.75
2023-04-15T13:28:14.209Z,3.65
2023-04-15T13:30:42.912Z,3.83
2023-04-15T13:33:11.270Z,4.20
2023-04-15T13:35:38.951Z,4.32
2023-04-15T13:38:07.956Z,3.53
2023-04-15T13:40:35.918Z,4.60
2023-04-15T13:43:04.735Z,4.57
2023-04-15T13:45:32.878Z,4.50
2023-04-15T13:48:01.176Z,4.60
2023-04-15T13:50:29.274Z,4.60
2023-04-15T13:52:56.994Z,4.80
2023-04-15T13:55:27.066Z,4.68
2023-04-15T13:57:55.378Z,4.90
2023-04-15T14:00:23.210Z,5.72
2023-04-15T14:02:51.151Z,5.05
2023-04-15T14:05:19.273Z,5.15
2023-04-15T14:07:47.087Z,4.75
2023-04-15T14:10:14.883Z,5.65
2023-04-15T14:12:44.072Z,5.38
2023-04-15T14:15:12.018Z,5.70
2023-04-15T14:17:39.758Z,5.25
2023-04-15T14:20:09.566Z,4.95
2023-04-15T14:22:37.438Z,4.82
2023-04-15T14:25:06.395Z,5.13
2023-04-15T14:27:34.087Z,5.10
2023-04-15T14:30:03.333Z,4.88
2023-04-15T14:32:31.040Z,4.47
2023-04-15T14:34:58.753Z,4.25
2023-04-15T14:37:26.400Z,4.63
2023-04-15T14:39:54.125Z,5.22
2023-04-15T14:42:22.179Z,4.63
2023-04-15T14:44:50.009Z,3.80
2023-04-15T14:47:19.525Z,4.72
2023-04-15T14:49:48.321Z,4.45
2023-04-15T14:52:23.323Z,4.45
2023-04-15T14:54:51.241Z,4.03
2023-04-15T14:57:18.970Z,3.90
2023-04-15T14:59:46.660Z,4.00
2023-04-15T15:02:21.234Z,4.10
2023-04-15T15:05:02.395Z,4.32
2023-04-15T15:07:30.230Z,4.20
2023-04-15T15:09:57.924Z,4.55
2023-04-15T15:12:25.789Z,4.35
2023-04-15T15:14:53.818Z,4.55
2023-04-15T15:17:29.864Z,4.40
2023-04-15T15:19:57.733Z,5.18
2023-04-15T15:22:27.081Z,5.00
2023-04-15T15:24:54.932Z,5.78
2023-04-15T15:27:22.874Z,4.85
2023-04-15T15:29:51.102Z,5.13
2023-04-15T15:32:19.032Z,5.53
2023-04-15T15:34:46.936Z,5.47
2023-04-15T15:37:14.892Z,6.05
2023-04-15T15:39:44.218Z,5.75
2023-04-15T15:42:12.190Z,6.22
2023-04-15T15:44:40.105Z,6.50
2023-04-15T15:47:08.059Z,6.30
2023-04-15T15:49:35.931Z,6.10
2023-04-15T15:52:03.938Z,5.60
2023-04-15T15:54:31.966Z,6.60
2023-04-15T15:57:01.654Z,6.20
2023-04-15T15:59:31.894Z,7.57
2023-04-15T16:02:00.053Z,7.45
2023-04-15T16:04:27.982Z,6.65
2023-04-15T16:06:55.926Z,6.75
2023-04-15T16:09:23.657Z,5.82
2023-04-15T16:11:51.446Z,6.22
2023-04-15T16:14:21.912Z,6.65
2023-04-15T16:16:49.660Z,5.90
2023-04-15T16:19:17.431Z,5.50
2023-04-15T16:21:45.758Z,4.93
2023-04-15T16:24:13.479Z,5.95
2023-04-15T16:26:41.462Z,5.25
2023-04-15T16:29:10.141Z,5.50
2023-04-15T16:31:41.413Z,5.55
2023-04-15T16:34:09.329Z,6.75
2023-04-15T16:36:37.070Z,5.60
2023-04-15T16:39:05.074Z,4.95
2023-04-15T16:41:34.474Z,5.40
2023-04-15T16:44:03.204Z,4.85
2023-04-15T16:46:31.217Z,4.53
2023-04-15T16:49:00.851Z,4.18
2023-04-15T16:51:31.541Z,4.82
2023-04-15T16:53:59.429Z,4.97
2023-04-15T16:56:27.262Z,4.43
2023-04-15T16:58:55.080Z,5.30
2023-04-15T17:01:23.124Z,4.70
2023-04-15T17:03:52.298Z,4.78
2023-04-15T17:06:23.136Z,4.63
2023-04-15T17:08:51.575Z,3.70
2023-04-15T17:11:19.276Z,4.90
2023-04-15T17:13:47.697Z,4.25
2023-04-15T17:16:15.571Z,4.45
2023-04-15T17:18:43.373Z,4.43
2023-04-15T17:21:11.177Z,4.90
2023-04-15T17:23:40.217Z,5.20
2023-04-15T17:26:07.906Z,5.70
2023-04-15T17:28:36.158Z,5.15
2023-04-15T17:31:05.064Z,5.97
2023-04-15T17:34:00.404Z,5.78
2023-04-15T17:36:20.645Z,5.20
2023-04-15T17:38:49.981Z,5.32
2023-04-15T17:41:17.744Z,5.30
2023-04-15T17:43:45.476Z,5.60
2023-04-15T17:46:13.495Z,5.40
2023-04-15T17:48:41.432Z,6.00
2023-04-15T17:51:09.115Z,5.55
2023-04-15T17:53:36.804Z,6.18
2023-04-15T17:56:06.363Z,6.78
2023-04-15T17:58:34.028Z,6.30
2023-04-15T18:01:01.726Z,5.28
2023-04-15T18:03:29.522Z,5.85
2023-04-15T18:05:57.485Z,5.60
2023-04-15T18:08:25.242Z,6.05
2023-04-15T18:10:52.935Z,5.72
2023-04-15T18:13:22.019Z,5.75
2023-04-15T18:15:54.928Z,5.97
2023-04-15T18:18:23.330Z,6.22
2023-04-15T18:20:50.985Z,7.15
2023-04-15T18:23:18.651Z,6.43
2023-04-15T18:25:46.460Z,7.05
2023-04-15T18:28:14.154Z,6.72
2023-04-15T18:30:43.229Z,6.65
2023-04-15T18:33:11.625Z,6.97
2023-04-15T18:35:39.682Z,7.03
2023-04-15T18:38:07.403Z,7.88
2023-04-15T18:40:35.176Z,8.25
2023-04-15T18:43:02.942Z,7.65
2023-04-15T18:45:31.059Z,8.50
2023-04-15T18:48:00.293Z,8.38
2023-04-15T18:50:28.023Z,7.65
2023-04-15T18:52:56.820Z,7.82
2023-04-15T18:55:24.868Z,8.07
2023-04-15T18:58:07.501Z,7.82
2023-04-15T19:00:40.632Z,7.25
2023-04-15T19:03:10.123Z,7.47
2023-04-15T19:05:38.171Z,7.32
2023-04-15T19:08:09.072Z,6.70
2023-04-15T19:10:36.867Z,7.35
2023-04-15T19:13:04.862Z,6.35
2023-04-15T19:15:32.899Z,7.55
2023-04-15T19:18:00.688Z,7.43
2023-04-15T19:20:30.198Z,8.10
2023-04-15T19:22:57.994Z,8.07
2023-04-15T19:25:26.047Z,9.52
2023-04-15T19:27:53.726Z,8.43
2023-04-15T19:30:21.822Z,8.45
2023-04-15T19:32:49.674Z,7.28
2023-04-15T19:35:17.542Z,7.80
2023-04-15T19:37:48.463Z,6.63
2023-04-15T19:40:16.245Z,7.03
2023-04-15T19:42:43.913Z,6.35
2023-04-15T19:45:12.655Z,6.25
2023-04-15T19:47:40.556Z,5.90
2023-04-15T19:50:11.201Z,6.10
2023-04-15T19:52:39.342Z,6.35
2023-04-15T19:55:09.389Z,6.35
2023-04-15T19:57:37.595Z,5.50
2023-04-15T20:00:06.941Z,6.35
2023-04-15T20:02:34.814Z,6.13
2023-04-15T20:05:02.612Z,6.13
2023-04-15T20:07:30.551Z,5.85
2023-04-15T20:09:58.346Z,5.70
2023-04-15T20:12:51.562Z,6.50
2023-04-15T20:15:15.921Z,6.78
2023-04-15T20:17:43.688Z,6.72
2023-04-15T20:20:11.795Z,6.40
2023-04-15T20:22:39.519Z,6.07
2023-04-15T20:25:08.608Z,7.03
2023-04-15T20:27:37.751Z,8.02
2023-04-15T20:30:06.409Z,6.15
2023-04-15T20:32:36.215Z,5.85
2023-04-15T20:35:05.234Z,6.40
2023-04-15T20:37:33.830Z,6.55
2023-04-15T20:40:02.242Z,5.72
2023-04-15T20:42:34.088Z,5.70
2023-04-15T20:45:03.514Z,6.90
2023-04-15T20:47:31.358Z,7.72
2023-04-15T20:49:59.133Z,6.18
2023-04-15T20:52:26.958Z,6.40
2023-04-15T20:54:54.817Z,6.00
2023-04-15T20:57:24.634Z,5.93
2023-04-15T20:59:52.448Z,6.43
2023-04-15T21:02:23.235Z,6.38
2023-04-15T21:04:51.317Z,6.75
2023-04-15T21:07:19.034Z,6.22
2023-04-15T21:09:47.300Z,6.55
2023-04-15T21:12:14.992Z,5.68
2023-04-15T21:14:42.682Z,5.55
2023-04-15T21:17:11.315Z,6.05
2023-04-15T21:19:41.183Z,5.95
2023-04-15T21:22:08.970Z,5.90
2023-04-15T21:24:36.617Z,5.82
2023-04-15T21:27:04.476Z,5.78
2023-04-15T21:29:32.139Z,5.68
2023-04-15T21:31:59.863Z,5.80
2023-04-15T21:34:27.640Z,5.90
2023-04-15T21:36:56.651Z,6.05
2023-04-15T21:39:24.858Z,6.18
2023-04-15T21:41:52.729Z,6.63
2023-04-15T21:44:20.522Z,6.50
2023-04-15T21:46:48.325Z,6.53
2023-04-15T21:49:16.039Z,6.10
2023-04-15T21:51:43.754Z,6.40
2023-04-15T21:54:12.813Z,5.50
2023-04-15T21:56:40.568Z,6.22
2023-04-15T21:59:08.319Z,6.18
2023-04-15T22:01:36.193Z,6.10
2023-04-15T22:04:04.103Z,5.72
2023-04-15T22:06:31.789Z,5.63
2023-04-15T22:08:59.568Z,6.05
2023-04-15T22:11:30.363Z,6.65
2023-04-15T22:13:58.541Z,6.65
2023-04-15T22:16:27.110Z,6.20
2023-04-15T22:18:55.281Z,6.20
2023-04-15T22:21:23.105Z,5.38
2023-04-15T22:23:51.073Z,5.20
2023-04-15T22:26:18.772Z,4.78
2023-04-15T22:28:48.089Z,4.50
2023-04-15T22:31:15.878Z,4.78
2023-04-15T22:33:43.667Z,4.40
2023-04-15T22:36:11.514Z,4.75
2023-04-15T22:38:39.189Z,5.50
2023-04-15T22:41:06.905Z,5.35
2023-04-15T22:43:34.648Z,5.53
2023-04-15T22:46:04.020Z,4.93
2023-04-15T22:48:31.837Z,5.95
2023-04-15T22:50:59.522Z,5.82
2023-04-15T22:59:06.573Z,7.05
2023-04-15T23:01:34.419Z,7.00
2023-04-15T23:04:07.328Z,6.63
2023-04-15T23:06:38.047Z,6.93
2023-04-15T23:09:05.820Z,6.60
2023-04-15T23:11:33.456Z,7.13
2023-04-15T23:14:01.118Z,6.32
2023-04-15T23:16:30.158Z,6.18
2023-04-15T23:18:57.831Z,6.40
2023-04-15T23:21:27.311Z,5.97
2023-04-15T23:23:55.018Z,5.70
2023-04-15T23:26:22.661Z,6.30
2023-04-15T23:28:50.358Z,6.40
2023-04-15T23:31:18.126Z,5.88
2023-04-15T23:33:47.132Z,5.53
2023-04-15T23:36:14.799Z,6.15
2023-04-15T23:38:43.427Z,5.88
2023-04-15T23:41:11.944Z,6.38
2023-04-15T23:43:39.615Z,6.88
2023-04-15T23:46:07.480Z,6.15
2023-04-15T23:48:35.148Z,6.43
2023-04-15T23:51:04.402Z,6.57
2023-04-15T23:53:33.066Z,7.40
2023-04-15T23:56:01.381Z,6.30
2023-04-15T23:58:29.077Z,7.05
